createdAt,value
2022-11-27T00:01:26.076Z,33.65
2022-11-27T00:04:28.740Z,32.17
2022-11-27T00:07:31.005Z,34.70
2022-11-27T00:10:33.594Z,33.83
2022-11-27T00:13:36.413Z,33.80
2022-11-27T00:16:39.302Z,35.93
2022-11-27T00:19:41.700Z,36.95
2022-11-27T00:22:44.496Z,35.38
2022-11-27T00:25:53.273Z,35.72
2022-11-27T00:28:56.498Z,35.60
2022-11-27T00:31:58.808Z,34.80
2022-11-27T00:35:01.312Z,35.20
2022-11-27T00:38:03.595Z,34.75
2022-11-27T00:41:17.338Z,34.33
2022-11-27T00:44:19.896Z,36.10
2022-11-27T00:47:22.511Z,34.25
2022-11-27T00:50:24.818Z,33.20
2022-11-27T00:53:28.165Z,32.45
2022-11-27T00:56:35.607Z,32.13
2022-11-27T00:59:38.112Z,31.77
2022-11-27T01:02:40.444Z,30.50
2022-11-27T01:05:43.060Z,29.30
2022-11-27T01:08:45.359Z,29.00
2022-11-27T01:11:48.015Z,28.12
2022-11-27T01:14:50.377Z,27.85
2022-11-27T01:17:53.176Z,26.92
2022-11-27T01:20:55.817Z,26.90
2022-11-27T01:23:59.510Z,26.60
2022-11-27T01:27:01.874Z,28.10
2022-11-27T01:30:04.923Z,25.75
2022-11-27T01:33:08.243Z,24.63
2022-11-27T01:36:12.980Z,25.45
2022-11-27T01:39:20.364Z,24.45
2022-11-27T01:42:22.818Z,23.98
2022-11-27T01:45:25.749Z,25.33
2022-11-27T01:48:28.331Z,24.85
2022-11-27T01:51:31.534Z,24.50
2022-11-27T01:54:50.794Z,25.62
2022-11-27T01:58:09.967Z,26.00
2022-11-27T02:01:12.535Z,24.85
2022-11-27T02:04:15.125Z,23.12
2022-11-27T02:07:18.006Z,23.65
2022-11-27T02:10:21.832Z,24.80
2022-11-27T02:17:10.074Z,22.75
2022-11-27T02:20:36.155Z,23.12
2022-11-27T02:24:00.225Z,22.65
2022-11-27T02:27:27.609Z,24.20
2022-11-27T02:30:36.787Z,24.25
2022-11-27T02:33:47.759Z,23.73
2022-11-27T02:37:06.975Z,23.95
2022-11-27T02:40:28.151Z,23.38
2022-11-27T02:43:45.001Z,23.33
2022-11-27T02:46:49.931Z,24.23
2022-11-27T02:49:56.947Z,23.73
2022-11-27T02:53:03.921Z,23.48
2022-11-27T02:56:14.875Z,23.45
2022-11-27T02:59:18.969Z,25.08
2022-11-27T03:02:28.466Z,23.92
2022-11-27T03:05:36.254Z,23.90
2022-11-27T03:08:50.545Z,23.48
2022-11-27T03:11:53.579Z,23.40
2022-11-27T03:14:55.996Z,24.30
2022-11-27T03:18:11.863Z,24.50
2022-11-27T03:21:31.584Z,24.37
2022-11-27T03:24:36.010Z,24.77
2022-11-27T03:27:48.985Z,24.20
2022-11-27T03:30:51.638Z,23.67
2022-11-27T03:33:54.529Z,24.77
2022-11-27T03:36:57.056Z,24.40
2022-11-27T03:39:59.423Z,22.95
2022-11-27T03:43:12.564Z,22.45
2022-11-27T03:46:29.677Z,22.95
2022-11-27T03:49:56.857Z,22.75
2022-11-27T03:53:01.949Z,22.13
2022-11-27T03:56:13.538Z,21.80
2022-11-27T03:59:25.619Z,21.52
2022-11-27T04:02:44.248Z,21.70
2022-11-27T04:05:46.773Z,19.62
2022-11-27T04:08:49.049Z,20.75
2022-11-27T04:11:51.575Z,20.55
2022-11-27T04:14:53.815Z,21.83
2022-11-27T04:17:56.375Z,21.00
2022-11-27T04:20:59.370Z,19.80
2022-11-27T04:24:01.899Z,21.42
2022-11-27T04:27:04.172Z,20.83
2022-11-27T04:30:07.680Z,22.13
2022-11-27T04:33:10.110Z,21.83
2022-11-27T04:36:12.683Z,20.95
2022-11-27T04:39:15.149Z,22.80
2022-11-27T04:42:17.669Z,22.27
2022-11-27T04:45:20.161Z,22.08
2022-11-27T04:48:22.712Z,23.90
2022-11-27T04:51:25.014Z,21.35
2022-11-27T04:54:27.610Z,22.52
2022-11-27T04:57:30.039Z,22.45
2022-11-27T05:00:32.673Z,22.30
2022-11-27T05:03:35.183Z,22.35
2022-11-27T05:06:37.726Z,22.87
2022-11-27T05:09:40.111Z,22.98
2022-11-27T05:12:42.777Z,22.50
2022-11-27T05:15:45.099Z,23.55
2022-11-27T05:18:47.643Z,24.77
2022-11-27T05:21:50.887Z,24.80
2022-11-27T05:24:53.440Z,25.52
2022-11-27T05:27:55.718Z,25.95
2022-11-27T05:30:58.582Z,25.17
2022-11-27T05:34:01.280Z,29.05
2022-11-27T05:37:03.791Z,26.45
2022-11-27T05:40:07.064Z,26.12
2022-11-27T05:43:09.595Z,25.62
2022-11-27T05:46:14.759Z,26.02
2022-11-27T05:49:18.343Z,26.25
2022-11-27T05:52:20.722Z,26.85
2022-11-27T05:55:23.326Z,26.40
2022-11-27T05:58:27.136Z,27.27
2022-11-27T06:01:30.075Z,27.90
2022-11-27T06:04:35.427Z,26.08
2022-11-27T06:07:37.779Z,25.62
2022-11-27T06:10:40.685Z,26.58
2022-11-27T06:13:43.030Z,26.50
2022-11-27T06:16:45.657Z,26.17
2022-11-27T06:19:48.088Z,26.92
2022-11-27T06:22:51.371Z,25.45
2022-11-27T06:25:53.641Z,25.30
2022-11-27T06:28:57.649Z,25.90
2022-11-27T06:31:59.948Z,26.33
2022-11-27T06:35:02.579Z,23.77
2022-11-27T06:38:04.785Z,25.37
2022-11-27T06:41:12.587Z,25.30
2022-11-27T06:44:15.569Z,25.65
2022-11-27T06:47:18.135Z,26.73
2022-11-27T06:50:20.377Z,26.52
2022-11-27T06:53:22.931Z,27.60
2022-11-27T06:56:27.256Z,26.55
2022-11-27T06:59:29.970Z,25.95
2022-11-27T07:02:35.323Z,27.20
2022-11-27T07:05:38.049Z,25.58
2022-11-27T07:08:40.272Z,26.50
2022-11-27T07:11:42.818Z,25.67
2022-11-27T07:14:45.034Z,24.90
2022-11-27T07:17:47.603Z,25.55
2022-11-27T07:20:56.354Z,25.92
2022-11-27T07:24:01.075Z,34.83
2022-11-27T07:27:03.395Z,35.65
2022-11-27T07:30:06.695Z,27.25
2022-11-27T07:33:08.977Z,24.60
2022-11-27T07:36:16.698Z,24.80
2022-11-27T07:39:33.795Z,26.27
2022-11-27T07:42:41.562Z,24.92
2022-11-27T07:45:45.112Z,24.30
2022-11-27T07:48:47.907Z,28.30
2022-11-27T07:51:50.155Z,39.25
2022-11-27T07:54:52.669Z,25.70
2022-11-27T07:57:54.999Z,24.02
2022-11-27T08:00:57.531Z,23.67
2022-11-27T08:04:03.010Z,23.85
2022-11-27T08:07:05.307Z,22.95
2022-11-27T08:10:08.194Z,22.40
2022-11-27T08:13:10.618Z,23.23
2022-11-27T08:16:13.361Z,22.92
2022-11-27T08:19:15.650Z,21.77
2022-11-27T08:22:19.609Z,21.92
2022-11-27T08:25:21.838Z,19.77
2022-11-27T08:28:24.564Z,19.67
2022-11-27T08:31:27.014Z,20.37
2022-11-27T08:34:29.632Z,19.67
2022-11-27T08:37:31.915Z,19.15
2022-11-27T08:40:34.479Z,18.52
2022-11-27T08:43:36.773Z,18.98
2022-11-27T08:46:39.287Z,18.52
2022-11-27T08:49:45.908Z,18.55
2022-11-27T08:52:48.900Z,18.35
2022-11-27T08:55:51.168Z,17.77
2022-11-27T08:58:53.864Z,18.25
2022-11-27T09:01:56.166Z,19.55
2022-11-27T09:04:58.988Z,20.85
2022-11-27T09:08:05.416Z,21.85
2022-11-27T09:11:09.183Z,22.58
2022-11-27T09:14:12.102Z,21.25
2022-11-27T09:17:14.812Z,19.58
2022-11-27T09:20:17.100Z,20.40
2022-11-27T09:23:19.650Z,19.25
2022-11-27T09:26:23.865Z,18.85
2022-11-27T09:29:26.364Z,21.35
2022-11-27T09:32:28.603Z,20.95
2022-11-27T09:35:31.185Z,21.30
2022-11-27T09:38:33.570Z,21.15
2022-11-27T09:41:42.450Z,20.12
2022-11-27T09:44:53.547Z,20.75
2022-11-27T09:48:05.132Z,21.40
2022-11-27T09:51:26.061Z,20.00
2022-11-27T09:55:24.586Z,17.90
2022-11-27T09:58:40.612Z,17.33
2022-11-27T10:01:49.372Z,19.75
2022-11-27T10:08:43.004Z,19.45
2022-11-27T10:12:18.331Z,18.77
2022-11-27T10:15:20.564Z,29.17
2022-11-27T10:18:42.686Z,19.95
2022-11-27T10:21:55.154Z,19.02
2022-11-27T10:25:16.456Z,19.70
2022-11-27T10:28:46.202Z,19.60
2022-11-27T10:31:53.331Z,20.52
2022-11-27T10:35:17.727Z,19.50
2022-11-27T10:38:23.578Z,19.52
2022-11-27T10:41:49.142Z,19.52
2022-11-27T10:45:02.086Z,19.30
2022-11-27T10:48:04.651Z,24.55
2022-11-27T10:51:15.858Z,22.45
2022-11-27T10:54:26.372Z,21.67
2022-11-27T10:57:34.761Z,19.52
2022-11-27T11:00:37.120Z,21.27
2022-11-27T11:03:40.203Z,19.70
2022-11-27T11:06:50.048Z,19.58
2022-11-27T11:09:54.368Z,20.50
2022-11-27T11:16:24.566Z,20.37
2022-11-27T11:19:33.246Z,19.67
2022-11-27T11:22:35.840Z,20.60
2022-11-27T11:25:38.165Z,20.90
2022-11-27T11:28:50.217Z,20.08
2022-11-27T11:31:54.600Z,21.48
2022-11-27T11:35:01.765Z,21.05
2022-11-27T11:38:14.337Z,20.15
2022-11-27T11:41:18.871Z,21.52
2022-11-27T11:44:39.605Z,21.75
2022-11-27T11:48:25.174Z,22.77
2022-11-27T11:54:57.751Z,20.45
2022-11-27T11:58:30.961Z,18.77
2022-11-27T12:01:45.944Z,18.90
2022-11-27T12:05:25.924Z,17.80
2022-11-27T12:08:59.075Z,17.45
2022-11-27T12:12:13.940Z,18.30
2022-11-27T12:15:38.793Z,17.75
2022-11-27T12:19:04.472Z,17.12
2022-11-27T12:22:06.680Z,15.48
2022-11-27T12:25:32.701Z,17.80
2022-11-27T12:29:12.075Z,18.00
2022-11-27T12:32:40.350Z,15.65
2022-11-27T12:35:57.538Z,16.87
2022-11-27T12:39:11.165Z,16.35
2022-11-27T12:42:22.369Z,16.77
2022-11-27T12:45:29.678Z,16.15
2022-11-27T12:48:39.236Z,16.90
2022-11-27T12:52:22.936Z,16.30
2022-11-27T12:55:29.925Z,16.37
2022-11-27T12:58:37.962Z,15.68
2022-11-27T13:01:45.546Z,15.43
2022-11-27T13:04:55.215Z,14.80
2022-11-27T13:08:27.691Z,16.00
2022-11-27T13:11:37.986Z,16.83
2022-11-27T13:14:43.827Z,16.23
2022-11-27T13:17:54.181Z,16.30
2022-11-27T13:21:00.615Z,15.43
2022-11-27T13:24:04.040Z,15.27
2022-11-27T13:27:16.186Z,15.60
2022-11-27T13:30:22.483Z,14.82
2022-11-27T13:33:36.075Z,15.43
2022-11-27T13:36:44.763Z,15.27
2022-11-27T13:39:47.013Z,15.63
2022-11-27T13:42:55.131Z,15.27
2022-11-27T13:46:25.380Z,16.17
2022-11-27T13:49:32.732Z,15.38
2022-11-27T13:52:35.752Z,13.65
2022-11-27T13:55:54.344Z,15.63
2022-11-27T13:58:57.395Z,13.68
2022-11-27T14:02:04.305Z,14.30
2022-11-27T14:05:07.103Z,14.07
2022-11-27T14:08:25.214Z,13.55
2022-11-27T14:11:36.860Z,13.15
2022-11-27T14:14:42.838Z,16.15
2022-11-27T14:17:48.409Z,15.35
2022-11-27T14:20:55.558Z,15.60
2022-11-27T14:23:58.187Z,15.40
2022-11-27T14:27:00.715Z,14.93
2022-11-27T14:30:28.108Z,13.60
2022-11-27T14:33:47.463Z,14.25
2022-11-27T14:36:57.234Z,14.27
2022-11-27T14:39:59.516Z,14.65
2022-11-27T14:43:19.370Z,12.52
2022-11-27T14:46:22.230Z,14.07
2022-11-27T14:49:26.414Z,13.85
2022-11-27T14:52:29.352Z,14.60
2022-11-27T14:55:34.728Z,13.13
2022-11-27T14:58:39.042Z,12.98
2022-11-27T15:01:41.902Z,12.35
2022-11-27T15:04:46.173Z,12.10
2022-11-27T15:07:51.091Z,12.48
2022-11-27T15:10:56.901Z,12.50
2022-11-27T15:14:02.737Z,11.95
2022-11-27T15:17:06.219Z,11.98
2022-11-27T15:20:18.831Z,13.30
2022-11-27T15:23:27.957Z,12.68
2022-11-27T15:26:30.509Z,11.32
2022-11-27T15:29:38.003Z,10.90
2022-11-27T15:32:53.704Z,11.57
2022-11-27T15:36:21.481Z,10.55
2022-11-27T15:40:02.792Z,10.40
2022-11-27T15:43:16.155Z,11.57
2022-11-27T15:46:32.722Z,11.27
2022-11-27T15:49:35.107Z,10.32
2022-11-27T15:52:37.702Z,12.40
2022-11-27T15:55:40.048Z,11.35
2022-11-27T15:58:43.028Z,10.88
2022-11-27T16:01:45.410Z,10.88
2022-11-27T16:04:48.085Z,9.88
2022-11-27T16:07:54.935Z,11.20
2022-11-27T16:11:02.816Z,10.10
2022-11-27T16:14:05.129Z,11.15
2022-11-27T16:17:07.668Z,11.02
2022-11-27T16:20:10.395Z,12.25
2022-11-27T16:23:13.045Z,12.18
2022-11-27T16:26:15.317Z,10.82
2022-11-27T16:29:35.998Z,10.95
2022-11-27T16:32:39.697Z,10.88
2022-11-27T16:35:42.339Z,11.90
2022-11-27T16:38:46.028Z,10.82
2022-11-27T16:41:48.655Z,10.55
2022-11-27T16:44:51.379Z,10.27
2022-11-27T16:47:53.718Z,11.18
2022-11-27T16:51:18.503Z,12.02
2022-11-27T16:54:20.938Z,10.77
2022-11-27T16:57:23.838Z,11.50
2022-11-27T17:00:27.642Z,11.07
2022-11-27T17:03:30.383Z,11.35
2022-11-27T17:06:33.621Z,12.65
2022-11-27T17:09:36.149Z,13.93
2022-11-27T17:12:38.441Z,11.77
2022-11-27T17:15:41.843Z,12.43
2022-11-27T17:18:47.525Z,11.43
2022-11-27T17:21:50.736Z,11.43
2022-11-27T17:24:55.285Z,11.70
2022-11-27T17:27:58.459Z,10.48
2022-11-27T17:31:00.911Z,10.35
2022-11-27T17:34:05.422Z,9.30
2022-11-27T17:37:08.941Z,8.50
2022-11-27T17:40:13.578Z,8.57
2022-11-27T17:43:15.776Z,8.90
2022-11-27T17:46:21.969Z,11.68
2022-11-27T17:49:24.917Z,9.13
2022-11-27T17:52:27.863Z,8.30
2022-11-27T17:55:31.425Z,8.45
2022-11-27T17:58:34.493Z,8.30
2022-11-27T18:01:37.256Z,8.40
2022-11-27T18:04:40.807Z,9.48
2022-11-27T18:07:43.215Z,9.30
2022-11-27T18:10:45.983Z,9.45
2022-11-27T18:13:49.214Z,9.48
2022-11-27T18:16:51.805Z,10.15
2022-11-27T18:19:54.246Z,8.70
2022-11-27T18:22:56.826Z,9.85
2022-11-27T18:25:59.208Z,8.85
2022-11-27T18:29:01.870Z,9.07
2022-11-27T18:32:04.690Z,9.50
2022-11-27T18:35:07.729Z,9.53
2022-11-27T18:38:10.282Z,8.90
2022-11-27T18:41:22.042Z,9.07
2022-11-27T18:44:24.302Z,8.57
2022-11-27T18:47:27.253Z,8.55
2022-11-27T18:50:30.056Z,8.95
2022-11-27T18:53:33.425Z,9.97
2022-11-27T18:56:37.170Z,9.77
2022-11-27T18:59:40.246Z,11.68
2022-11-27T19:02:45.307Z,10.97
2022-11-27T19:05:47.839Z,11.30
2022-11-27T19:08:50.406Z,10.88
2022-11-27T19:11:53.486Z,12.40
2022-11-27T19:14:55.780Z,13.15
2022-11-27T19:17:59.181Z,14.93
2022-11-27T19:21:01.549Z,14.13
2022-11-27T19:24:04.906Z,15.68
2022-11-27T19:27:07.307Z,16.17
2022-11-27T19:30:10.666Z,15.57
2022-11-27T19:33:13.034Z,14.98
2022-11-27T19:36:16.741Z,15.77
2022-11-27T19:39:19.221Z,16.25
2022-11-27T19:45:25.746Z,14.18
2022-11-27T19:48:28.439Z,15.00
2022-11-27T19:51:37.313Z,15.82
2022-11-27T19:54:40.143Z,15.52
2022-11-27T19:57:42.632Z,16.02
2022-11-27T20:00:45.384Z,16.67
2022-11-27T20:03:48.195Z,18.00
2022-11-27T20:06:52.650Z,15.00
2022-11-27T20:09:55.412Z,16.83
2022-11-27T20:13:01.446Z,17.50
2022-11-27T20:16:08.272Z,16.75
2022-11-27T20:19:10.814Z,15.57
2022-11-27T20:22:13.442Z,16.65
2022-11-27T20:25:20.445Z,16.40
2022-11-27T20:28:23.520Z,16.58
2022-11-27T20:31:29.427Z,16.45
2022-11-27T20:34:33.358Z,16.67
2022-11-27T20:37:35.891Z,16.42
2022-11-27T20:40:39.455Z,16.12
2022-11-27T20:43:43.191Z,16.77
2022-11-27T20:46:45.854Z,16.40
2022-11-27T20:49:48.247Z,16.55
2022-11-27T20:52:50.967Z,15.85
2022-11-27T20:55:53.531Z,15.20
2022-11-27T20:58:56.209Z,13.75
2022-11-27T21:01:58.505Z,13.02
2022-11-27T21:05:01.567Z,14.67
2022-11-27T21:08:04.051Z,12.73
2022-11-27T21:11:10.889Z,13.75
2022-11-27T21:14:15.310Z,13.98
2022-11-27T21:17:19.322Z,13.95
2022-11-27T21:20:21.914Z,13.90
2022-11-27T21:23:24.498Z,13.62
2022-11-27T21:26:27.194Z,12.98
2022-11-27T21:29:30.751Z,12.45
2022-11-27T21:32:33.296Z,11.38
2022-11-27T21:35:40.205Z,11.93
2022-11-27T21:38:43.444Z,10.98
2022-11-27T21:41:52.402Z,11.73
2022-11-27T21:44:54.820Z,11.63
2022-11-27T21:47:58.411Z,11.93
2022-11-27T21:51:05.493Z,11.73
2022-11-27T21:54:10.083Z,12.48
2022-11-27T21:57:12.982Z,13.18
2022-11-27T22:00:16.172Z,13.03
2022-11-27T22:03:18.821Z,12.07
2022-11-27T22:06:22.914Z,12.57
2022-11-27T22:09:25.502Z,12.60
2022-11-27T22:12:27.908Z,13.43
2022-11-27T22:15:30.493Z,13.60
2022-11-27T22:18:32.743Z,12.35
2022-11-27T22:21:35.475Z,13.38
2022-11-27T22:24:37.728Z,13.80
2022-11-27T22:27:40.270Z,14.02
2022-11-27T22:30:42.663Z,13.70
2022-11-27T22:33:46.519Z,15.13
2022-11-27T22:36:48.761Z,14.10
2022-11-27T22:39:51.512Z,14.60
2022-11-27T22:42:53.773Z,14.90
2022-11-27T22:45:56.923Z,16.10
2022-11-27T22:49:01.628Z,16.02
2022-11-27T22:52:04.461Z,15.00
2022-11-27T22:55:07.326Z,15.90
2022-11-27T22:58:09.872Z,15.55
2022-11-27T23:01:21.781Z,15.80
2022-11-27T23:04:24.326Z,14.82
2022-11-27T23:07:26.682Z,14.82
2022-11-27T23:10:29.323Z,16.08
2022-11-27T23:13:31.815Z,15.20
2022-11-27T23:16:34.795Z,15.25
2022-11-27T23:19:37.354Z,14.98
2022-11-27T23:22:39.874Z,15.35
2022-11-27T23:25:42.124Z,15.25
2022-11-27T23:28:45.318Z,16.23
2022-11-27T23:31:47.685Z,14.50
2022-11-27T23:34:50.389Z,14.50
2022-11-27T23:37:52.649Z,13.40
2022-11-27T23:40:57.587Z,13.27
2022-11-27T23:47:02.294Z,13.65
2022-11-27T23:50:06.777Z,14.35
2022-11-27T23:53:09.286Z,14.23
2022-11-27T23:56:23.033Z,15.02
2022-11-27T23:59:25.638Z,14.18
